createdAt,value
2023-05-14T00:01:12.756Z,5.48
2023-05-14T00:03:42.048Z,5.44
2023-05-14T00:06:19.652Z,5.40
2023-05-14T00:08:50.639Z,5.36
2023-05-14T00:11:18.761Z,5.31
2023-05-14T00:13:47.446Z,5.27
2023-05-14T00:16:16.111Z,5.23
2023-05-14T00:18:44.372Z,5.19
2023-05-14T00:21:13.196Z,5.16
2023-05-14T00:23:48.950Z,5.12
2023-05-14T00:26:17.054Z,5.07
2023-05-14T00:28:45.402Z,5.03
2023-05-14T00:31:14.749Z,5.00
2023-05-14T00:33:43.165Z,4.97
2023-05-14T00:36:14.431Z,4.94
2023-05-14T00:38:42.667Z,4.90
2023-05-14T00:41:10.877Z,4.87
2023-05-14T00:43:39.079Z,4.83
2023-05-14T00:46:09.950Z,4.81
2023-05-14T00:48:38.636Z,4.79
2023-05-14T00:51:19.145Z,4.77
2023-05-14T00:53:55.510Z,4.74
2023-05-14T00:56:47.333Z,4.72
2023-05-14T00:59:17.702Z,4.69
2023-05-14T01:01:45.782Z,4.68
2023-05-14T01:04:35.247Z,4.66
2023-05-14T01:07:21.537Z,4.65
2023-05-14T01:10:17.614Z,4.63
2023-05-14T01:13:18.558Z,4.62
2023-05-14T01:15:58.914Z,4.60
2023-05-14T01:18:38.533Z,4.59
2023-05-14T01:21:41.069Z,4.58
2023-05-14T01:24:09.852Z,4.57
2023-05-14T01:26:38.548Z,4.55
2023-05-14T01:29:15.861Z,4.54
2023-05-14T01:31:47.497Z,4.53
2023-05-14T01:34:18.561Z,4.51
2023-05-14T01:36:48.282Z,4.50
2023-05-14T01:39:17.744Z,4.49
2023-05-14T01:41:49.132Z,4.48
2023-05-14T01:44:20.737Z,4.47
2023-05-14T01:46:56.384Z,4.46
2023-05-14T01:49:24.807Z,4.44
2023-05-14T01:52:10.351Z,4.43
2023-05-14T01:54:39.763Z,4.41
2023-05-14T01:57:08.035Z,4.40
2023-05-14T01:59:36.793Z,4.39
2023-05-14T02:02:05.092Z,4.38
2023-05-14T02:04:33.583Z,4.37
2023-05-14T02:07:01.758Z,4.36
2023-05-14T02:09:30.772Z,4.33
2023-05-14T02:11:59.954Z,4.31
2023-05-14T02:14:28.120Z,4.30
2023-05-14T02:16:56.838Z,4.28
2023-05-14T02:19:24.975Z,4.26
2023-05-14T02:21:53.462Z,4.24
2023-05-14T02:24:21.845Z,4.22
2023-05-14T02:26:49.868Z,4.20
2023-05-14T02:29:17.829Z,4.17
2023-05-14T02:31:45.963Z,4.15
2023-05-14T02:34:14.093Z,4.13
2023-05-14T02:36:44.795Z,4.11
2023-05-14T02:39:12.835Z,4.09
2023-05-14T02:41:43.586Z,4.08
2023-05-14T02:44:11.844Z,4.06
2023-05-14T02:46:40.296Z,4.05
2023-05-14T02:49:08.913Z,4.05
2023-05-14T02:51:36.996Z,4.05
2023-05-14T02:54:05.772Z,4.04
2023-05-14T02:56:34.086Z,4.03
2023-05-14T02:59:05.001Z,4.03
2023-05-14T03:01:33.575Z,4.04
2023-05-14T03:04:01.956Z,4.04
2023-05-14T03:06:30.076Z,4.05
2023-05-14T03:08:58.284Z,4.07
2023-05-14T03:11:26.383Z,4.09
2023-05-14T03:13:54.553Z,4.12
2023-05-14T03:16:22.995Z,4.15
2023-05-14T03:18:51.437Z,4.18
2023-05-14T03:21:19.699Z,4.22
2023-05-14T03:23:50.728Z,4.26
2023-05-14T03:26:19.670Z,4.30
2023-05-14T03:28:48.104Z,4.33
2023-05-14T03:31:16.532Z,4.38
2023-05-14T03:33:45.475Z,4.44
2023-05-14T03:36:13.850Z,4.49
2023-05-14T03:38:42.376Z,4.54
2023-05-14T03:41:10.344Z,4.61
2023-05-14T03:43:43.717Z,4.68
2023-05-14T03:46:12.189Z,4.74
2023-05-14T03:48:42.780Z,4.81
2023-05-14T03:51:11.307Z,4.89
2023-05-14T03:53:39.367Z,4.97
2023-05-14T03:56:08.249Z,5.04
2023-05-14T03:58:37.219Z,5.12
2023-05-14T04:01:05.841Z,5.20
2023-05-14T04:03:34.370Z,5.29
2023-05-14T04:06:02.532Z,5.37
2023-05-14T04:08:31.185Z,5.46
2023-05-14T04:10:59.769Z,5.55
2023-05-14T04:13:28.150Z,5.66
2023-05-14T04:15:56.509Z,5.77
2023-05-14T04:18:25.867Z,5.90
2023-05-14T04:20:56.968Z,6.04
2023-05-14T04:23:25.268Z,6.19
2023-05-14T04:25:53.175Z,6.36
2023-05-14T04:28:21.304Z,6.54
2023-05-14T04:30:49.920Z,6.71
2023-05-14T04:33:18.256Z,6.90
2023-05-14T04:35:46.834Z,7.08
2023-05-14T04:38:15.933Z,7.26
2023-05-14T04:40:44.101Z,7.43
2023-05-14T04:43:36.234Z,7.61
2023-05-14T04:46:04.451Z,7.95
2023-05-14T04:48:33.005Z,8.98
2023-05-14T04:51:06.366Z,10.40
2023-05-14T04:53:35.494Z,11.82
2023-05-14T04:56:16.976Z,13.12
2023-05-14T04:58:45.209Z,14.42
2023-05-14T05:01:13.792Z,15.58
2023-05-14T05:03:52.876Z,16.68
2023-05-14T05:06:21.384Z,17.73
2023-05-14T05:08:49.629Z,18.58
2023-05-14T05:11:17.849Z,19.27
2023-05-14T05:14:06.457Z,19.85
2023-05-14T05:16:34.896Z,20.29
2023-05-14T05:19:03.425Z,20.56
2023-05-14T05:21:34.025Z,20.84
2023-05-14T05:24:13.721Z,21.11
2023-05-14T05:26:41.891Z,21.39
2023-05-14T05:29:10.346Z,21.80
2023-05-14T05:31:39.081Z,22.36
2023-05-14T05:34:07.469Z,22.89
2023-05-14T05:36:35.923Z,23.43
2023-05-14T05:39:03.965Z,23.87
2023-05-14T05:41:32.034Z,23.97
2023-05-14T05:44:00.141Z,23.76
2023-05-14T05:46:28.134Z,23.46
2023-05-14T05:48:56.613Z,23.17
2023-05-14T05:51:24.840Z,22.77
2023-05-14T05:53:52.906Z,22.30
2023-05-14T05:56:22.216Z,21.80
2023-05-14T05:58:50.257Z,21.43
2023-05-14T06:01:18.555Z,21.12
2023-05-14T06:03:48.588Z,20.83
2023-05-14T06:06:17.009Z,20.55
2023-05-14T06:08:45.213Z,20.26
2023-05-14T06:11:13.320Z,19.85
2023-05-14T06:13:41.548Z,19.37
2023-05-14T06:16:10.018Z,18.95
2023-05-14T06:18:38.173Z,18.60
2023-05-14T06:21:06.501Z,18.31
2023-05-14T06:23:34.729Z,18.06
2023-05-14T06:26:03.156Z,17.75
2023-05-14T06:28:31.246Z,17.55
2023-05-14T06:30:59.516Z,17.42
2023-05-14T06:33:31.512Z,17.36
2023-05-14T06:36:06.965Z,17.34
2023-05-14T06:38:35.096Z,17.31
2023-05-14T06:41:04.007Z,17.30
2023-05-14T06:43:35.135Z,17.31
2023-05-14T06:46:03.717Z,17.36
2023-05-14T06:48:31.814Z,17.44
2023-05-14T06:50:59.860Z,17.44
2023-05-14T06:53:27.934Z,17.39
2023-05-14T06:55:56.487Z,17.37
2023-05-14T06:58:24.660Z,17.36
2023-05-14T07:00:52.671Z,17.35
2023-05-14T07:03:22.058Z,17.33
2023-05-14T07:05:50.341Z,17.34
2023-05-14T07:08:21.492Z,17.42
2023-05-14T07:10:49.530Z,17.52
2023-05-14T07:13:17.721Z,17.60
2023-05-14T07:15:45.915Z,17.68
2023-05-14T07:18:17.162Z,17.76
2023-05-14T07:20:45.663Z,17.85
2023-05-14T07:23:13.847Z,17.96
2023-05-14T07:25:41.790Z,18.08
2023-05-14T07:28:09.895Z,18.19
2023-05-14T07:30:38.141Z,18.30
2023-05-14T07:33:06.528Z,18.40
2023-05-14T07:35:34.996Z,18.52
2023-05-14T07:38:06.241Z,18.70
2023-05-14T07:40:34.431Z,18.83
2023-05-14T07:43:02.515Z,18.87
2023-05-14T07:45:30.863Z,18.91
2023-05-14T07:47:59.393Z,19.02
2023-05-14T07:50:27.997Z,19.17
2023-05-14T07:52:56.405Z,19.29
2023-05-14T07:55:24.448Z,19.45
2023-05-14T07:57:52.663Z,19.60
2023-05-14T08:00:20.942Z,19.67
2023-05-14T08:02:49.526Z,19.66
2023-05-14T08:05:18.373Z,19.63
2023-05-14T08:07:46.590Z,19.71
2023-05-14T08:10:17.829Z,19.75
2023-05-14T08:12:49.323Z,19.85
2023-05-14T08:15:24.551Z,19.85
2023-05-14T08:17:54.920Z,19.83
2023-05-14T08:20:26.145Z,19.86
2023-05-14T08:22:54.325Z,19.95
2023-05-14T08:25:23.507Z,20.05
2023-05-14T08:27:51.582Z,20.13
2023-05-14T08:30:19.836Z,20.25
2023-05-14T08:32:48.590Z,20.33
2023-05-14T08:35:17.962Z,20.37
2023-05-14T08:37:46.536Z,20.37
2023-05-14T08:40:14.618Z,20.38
2023-05-14T08:42:45.221Z,20.42
2023-05-14T08:45:21.393Z,20.42
2023-05-14T08:47:51.357Z,20.45
2023-05-14T08:50:23.776Z,20.53
2023-05-14T08:52:53.484Z,20.60
2023-05-14T08:55:27.517Z,20.69
2023-05-14T08:57:56.321Z,20.76
2023-05-14T09:00:27.839Z,20.74
2023-05-14T09:03:00.858Z,20.68
2023-05-14T09:05:38.425Z,20.54
2023-05-14T09:08:09.472Z,20.43
2023-05-14T09:10:37.748Z,20.34
2023-05-14T09:13:05.883Z,20.34
2023-05-14T09:15:41.769Z,20.35
2023-05-14T09:18:16.086Z,20.37
2023-05-14T09:20:44.314Z,20.41
2023-05-14T09:23:12.343Z,20.49
2023-05-14T09:25:40.408Z,20.63
2023-05-14T09:28:11.425Z,20.77
2023-05-14T09:30:39.530Z,20.89
2023-05-14T09:33:10.688Z,21.03
2023-05-14T09:35:41.487Z,21.19
2023-05-14T09:38:09.608Z,21.28
2023-05-14T09:40:38.254Z,21.37
2023-05-14T09:43:06.333Z,21.43
2023-05-14T09:45:35.626Z,21.48
2023-05-14T09:48:03.861Z,21.51
2023-05-14T09:50:32.200Z,21.55
2023-05-14T09:53:00.354Z,21.58
2023-05-14T09:55:29.342Z,21.54
2023-05-14T09:57:57.516Z,21.53
2023-05-14T10:00:25.788Z,21.59
2023-05-14T10:02:58.410Z,21.63
2023-05-14T10:05:28.068Z,21.72
2023-05-14T10:07:59.243Z,21.86
2023-05-14T10:10:30.398Z,21.99
2023-05-14T10:13:05.051Z,22.07
2023-05-14T10:15:55.041Z,22.00
2023-05-14T10:18:24.591Z,21.79
2023-05-14T10:21:05.879Z,21.70
2023-05-14T10:23:37.775Z,21.70
2023-05-14T10:26:06.728Z,21.73
2023-05-14T10:28:35.794Z,21.74
2023-05-14T10:31:03.866Z,21.72
2023-05-14T10:33:47.465Z,21.64
2023-05-14T10:36:15.613Z,21.51
2023-05-14T10:38:44.117Z,21.41
2023-05-14T10:41:18.181Z,21.29
2023-05-14T10:43:46.996Z,21.22
2023-05-14T10:46:15.246Z,21.18
2023-05-14T10:48:44.456Z,21.10
2023-05-14T10:51:12.690Z,21.04
2023-05-14T10:53:43.091Z,20.99
2023-05-14T10:56:13.845Z,20.93
2023-05-14T10:58:45.939Z,20.90
2023-05-14T11:01:14.373Z,20.88
2023-05-14T11:03:47.024Z,20.86
2023-05-14T11:06:16.377Z,20.77
2023-05-14T11:08:44.775Z,20.64
2023-05-14T11:11:13.099Z,20.53
2023-05-14T11:13:41.789Z,20.40
2023-05-14T11:18:41.951Z,20.12
2023-05-14T11:21:10.528Z,19.99
2023-05-14T11:23:39.097Z,19.87
2023-05-14T11:26:07.401Z,19.73
2023-05-14T11:28:36.468Z,19.62
2023-05-14T11:31:05.700Z,19.55
2023-05-14T11:33:34.037Z,19.46
2023-05-14T11:36:04.517Z,19.34
2023-05-14T11:38:32.515Z,19.24
2023-05-14T11:41:00.918Z,19.16
2023-05-14T11:43:29.525Z,19.09
2023-05-14T11:45:57.678Z,19.00
2023-05-14T11:48:25.799Z,18.90
2023-05-14T11:50:53.821Z,18.80
2023-05-14T11:53:26.556Z,18.71
2023-05-14T11:55:55.493Z,18.61
2023-05-14T11:58:24.201Z,18.52
2023-05-14T12:00:53.733Z,18.46
2023-05-14T12:03:26.142Z,18.41
2023-05-14T12:05:59.564Z,18.35
2023-05-14T12:08:30.030Z,18.28
2023-05-14T12:11:01.881Z,18.24
2023-05-14T12:13:31.544Z,18.20
2023-05-14T12:16:02.593Z,18.13
2023-05-14T12:18:41.465Z,18.10
2023-05-14T12:21:17.390Z,18.05
2023-05-14T12:23:45.447Z,18.03
2023-05-14T12:26:13.465Z,18.00
2023-05-14T12:28:47.651Z,17.97
2023-05-14T12:31:16.244Z,17.94
2023-05-14T12:33:44.250Z,17.91
2023-05-14T12:36:22.120Z,17.89
2023-05-14T12:38:51.488Z,17.86
2023-05-14T12:41:19.802Z,17.83
2023-05-14T12:43:49.598Z,17.80
2023-05-14T12:46:18.062Z,17.75
2023-05-14T12:48:46.472Z,17.73
2023-05-14T12:51:14.928Z,17.69
2023-05-14T12:53:43.204Z,17.63
2023-05-14T12:56:12.197Z,17.58
2023-05-14T12:58:42.896Z,17.53
2023-05-14T13:01:11.027Z,17.41
2023-05-14T13:03:41.555Z,17.27
2023-05-14T13:06:32.859Z,17.12
2023-05-14T13:09:02.457Z,16.92
2023-05-14T13:11:32.124Z,16.76
2023-05-14T13:14:02.675Z,16.62
2023-05-14T13:16:31.418Z,16.46
2023-05-14T13:18:59.833Z,16.32
2023-05-14T13:21:28.146Z,16.19
2023-05-14T13:23:56.720Z,16.04
2023-05-14T13:26:32.377Z,15.93
2023-05-14T13:29:00.555Z,15.84
2023-05-14T13:31:28.812Z,15.78
2023-05-14T13:33:58.437Z,15.75
2023-05-14T13:36:48.132Z,15.72
2023-05-14T13:39:16.503Z,15.72
2023-05-14T13:41:45.588Z,15.73
2023-05-14T13:44:13.866Z,15.74
2023-05-14T13:46:42.235Z,15.75
2023-05-14T13:49:13.109Z,15.76
2023-05-14T13:51:41.167Z,15.76
2023-05-14T13:54:21.320Z,15.77
2023-05-14T13:56:55.424Z,15.80
2023-05-14T13:59:24.089Z,15.85
2023-05-14T14:01:52.354Z,15.90
2023-05-14T14:04:20.969Z,15.96
2023-05-14T14:06:49.250Z,16.00
2023-05-14T14:09:17.314Z,16.02
2023-05-14T14:11:45.624Z,16.04
2023-05-14T14:14:14.074Z,16.06
2023-05-14T14:16:42.133Z,16.07
2023-05-14T14:19:11.403Z,16.10
2023-05-14T14:21:42.836Z,16.13
2023-05-14T14:24:13.585Z,16.16
2023-05-14T14:26:41.597Z,16.20
2023-05-14T14:29:09.544Z,16.23
2023-05-14T14:31:37.579Z,16.26
2023-05-14T14:34:05.666Z,16.29
2023-05-14T14:36:33.683Z,16.32
2023-05-14T14:39:01.856Z,16.33
2023-05-14T14:41:30.322Z,16.33
2023-05-14T14:43:58.534Z,16.32
2023-05-14T14:46:27.194Z,16.30
2023-05-14T14:48:55.600Z,16.26
2023-05-14T14:51:23.619Z,16.22
2023-05-14T14:53:51.629Z,16.17
2023-05-14T14:56:19.802Z,16.12
2023-05-14T14:58:47.856Z,16.07
2023-05-14T15:01:17.415Z,16.03
2023-05-14T15:03:48.413Z,15.97
2023-05-14T15:06:16.594Z,15.92
2023-05-14T15:08:44.562Z,15.88
2023-05-14T15:11:12.683Z,15.83
2023-05-14T15:13:42.028Z,15.80
2023-05-14T15:16:10.087Z,15.78
2023-05-14T15:18:38.295Z,15.79
2023-05-14T15:21:06.389Z,15.81
2023-05-14T15:23:34.570Z,15.85
2023-05-14T15:26:04.455Z,15.88
2023-05-14T15:28:32.558Z,15.91
2023-05-14T15:31:02.642Z,15.95
2023-05-14T15:33:30.845Z,15.97
2023-05-14T15:35:58.992Z,15.97
2023-05-14T15:38:30.514Z,15.97
2023-05-14T15:40:58.553Z,15.99
2023-05-14T15:43:26.672Z,16.01
2023-05-14T15:45:54.664Z,16.05
2023-05-14T15:48:22.702Z,16.09
2023-05-14T15:50:51.645Z,16.11
2023-05-14T15:53:20.826Z,16.12
2023-05-14T15:55:49.322Z,16.11
2023-05-14T15:58:17.780Z,16.10
2023-05-14T16:00:48.479Z,16.08
2023-05-14T16:03:17.526Z,16.05
2023-05-14T16:05:45.991Z,16.05
2023-05-14T16:08:14.206Z,16.04
2023-05-14T16:10:42.100Z,16.03
2023-05-14T16:13:10.176Z,16.01
2023-05-14T16:15:40.052Z,15.99
2023-05-14T16:18:08.382Z,15.98
2023-05-14T16:20:36.450Z,15.96
2023-05-14T16:23:04.528Z,15.94
2023-05-14T16:25:32.572Z,15.92
2023-05-14T16:28:00.868Z,15.90
2023-05-14T16:30:28.793Z,15.88
2023-05-14T16:32:57.234Z,15.85
2023-05-14T16:35:25.391Z,15.82
2023-05-14T16:37:54.505Z,15.79
2023-05-14T16:40:23.790Z,15.76
2023-05-14T16:42:54.714Z,15.73
2023-05-14T16:45:26.138Z,15.70
2023-05-14T16:47:54.525Z,15.68
2023-05-14T16:50:22.635Z,15.65
2023-05-14T16:52:50.842Z,15.63
2023-05-14T16:55:26.046Z,15.61
2023-05-14T16:57:54.207Z,15.59
2023-05-14T17:00:22.551Z,15.57
2023-05-14T17:02:57.985Z,15.54
2023-05-14T17:05:26.463Z,15.52
2023-05-14T17:07:54.655Z,15.48
2023-05-14T17:10:23.985Z,15.46
2023-05-14T17:12:54.988Z,15.43
2023-05-14T17:15:42.500Z,15.38
2023-05-14T17:18:12.062Z,15.33
2023-05-14T17:20:49.249Z,15.29
2023-05-14T17:23:19.254Z,15.26
2023-05-14T17:25:47.378Z,15.23
2023-05-14T17:28:16.014Z,15.20
2023-05-14T17:30:44.102Z,15.18
2023-05-14T17:33:12.395Z,15.15
2023-05-14T17:35:51.295Z,15.12
2023-05-14T17:38:22.038Z,15.09
2023-05-14T17:40:50.505Z,15.06
2023-05-14T17:43:19.094Z,15.02
2023-05-14T17:48:22.274Z,14.94
2023-05-14T17:50:53.452Z,14.90
2023-05-14T17:53:21.935Z,14.87
2023-05-14T17:55:50.428Z,14.82
2023-05-14T17:58:18.871Z,14.78
2023-05-14T18:00:47.010Z,14.75
2023-05-14T18:03:15.255Z,14.72
2023-05-14T18:05:43.389Z,14.69
2023-05-14T18:08:12.034Z,14.66
2023-05-14T18:10:40.138Z,14.64
2023-05-14T18:13:08.488Z,14.63
2023-05-14T18:15:37.015Z,14.62
2023-05-14T18:18:05.688Z,14.61
2023-05-14T18:20:35.597Z,14.59
2023-05-14T18:23:03.766Z,14.58
2023-05-14T18:25:31.928Z,14.57
2023-05-14T18:28:00.099Z,14.55
2023-05-14T18:30:28.145Z,14.53
2023-05-14T18:32:56.226Z,14.51
2023-05-14T18:35:24.629Z,14.48
2023-05-14T18:37:53.490Z,14.45
2023-05-14T18:40:21.531Z,14.42
2023-05-14T18:42:49.737Z,14.38
2023-05-14T18:45:18.143Z,14.34
2023-05-14T18:47:46.565Z,14.31
2023-05-14T18:50:14.634Z,14.28
2023-05-14T18:52:42.741Z,14.25
2023-05-14T18:55:11.126Z,14.22
2023-05-14T18:57:39.201Z,14.19
2023-05-14T19:00:08.027Z,14.16
2023-05-14T19:02:36.132Z,14.14
2023-05-14T19:05:05.359Z,14.13
2023-05-14T19:07:33.607Z,14.12
2023-05-14T19:10:01.712Z,14.11
2023-05-14T19:12:29.809Z,14.11
2023-05-14T19:15:01.036Z,14.11
2023-05-14T19:17:29.458Z,14.10
2023-05-14T19:19:57.353Z,14.09
2023-05-14T19:22:25.272Z,14.08
2023-05-14T19:24:53.362Z,14.08
2023-05-14T19:27:21.512Z,14.07
2023-05-14T19:29:49.856Z,14.06
2023-05-14T19:32:17.898Z,14.05
2023-05-14T19:34:45.899Z,14.04
2023-05-14T19:37:14.115Z,14.03
2023-05-14T19:39:42.182Z,14.03
2023-05-14T19:42:10.183Z,14.02
2023-05-14T19:44:38.176Z,14.01
2023-05-14T19:47:06.327Z,13.99
2023-05-14T19:49:35.327Z,13.98
2023-05-14T19:52:03.971Z,13.95
2023-05-14T19:54:32.118Z,13.94
2023-05-14T19:57:00.507Z,13.92
2023-05-14T19:59:29.763Z,13.91
2023-05-14T20:01:57.837Z,13.89
2023-05-14T20:04:26.146Z,13.89
2023-05-14T20:06:54.246Z,13.88
2023-05-14T20:09:22.908Z,13.87
2023-05-14T20:11:51.183Z,13.86
2023-05-14T20:14:19.661Z,13.85
2023-05-14T20:16:49.144Z,13.84
2023-05-14T20:19:17.321Z,13.84
2023-05-14T20:21:45.413Z,13.84
2023-05-14T20:24:13.617Z,13.83
2023-05-14T20:26:41.660Z,13.82
2023-05-14T20:29:11.418Z,13.81
2023-05-14T20:31:39.652Z,13.81
2023-05-14T20:34:07.591Z,13.80
2023-05-14T20:36:36.376Z,13.79
2023-05-14T20:39:06.250Z,13.78
2023-05-14T20:41:35.052Z,13.76
2023-05-14T20:44:03.545Z,13.76
2023-05-14T20:46:31.790Z,13.74
2023-05-14T20:49:02.203Z,13.72
2023-05-14T20:51:31.053Z,13.71
2023-05-14T20:53:59.151Z,13.71
2023-05-14T20:56:30.494Z,13.70
2023-05-14T20:59:07.699Z,13.70
2023-05-14T21:01:35.919Z,13.69
2023-05-14T21:04:04.591Z,13.68
2023-05-14T21:06:33.352Z,13.66
2023-05-14T21:09:01.544Z,13.65
2023-05-14T21:11:38.817Z,13.64
2023-05-14T21:14:07.026Z,13.63
2023-05-14T21:16:42.684Z,13.62
2023-05-14T21:19:13.275Z,13.61
2023-05-14T21:21:43.066Z,13.62
2023-05-14T21:24:11.552Z,13.63
2023-05-14T21:26:40.553Z,13.63
2023-05-14T21:29:08.616Z,13.62
2023-05-14T21:31:36.760Z,13.61
2023-05-14T21:34:06.102Z,13.60
2023-05-14T21:36:34.243Z,13.58
2023-05-14T21:39:02.222Z,13.56
2023-05-14T21:41:32.657Z,13.53
2023-05-14T21:44:03.706Z,13.51
2023-05-14T21:46:32.297Z,13.48
2023-05-14T21:49:00.358Z,13.45
2023-05-14T21:51:28.538Z,13.44
2023-05-14T21:53:56.680Z,13.41
2023-05-14T21:56:25.395Z,13.39
2023-05-14T21:58:56.169Z,13.37
2023-05-14T22:01:24.449Z,13.35
2023-05-14T22:03:56.430Z,13.33
2023-05-14T22:06:32.535Z,13.31
2023-05-14T22:09:00.709Z,13.29
2023-05-14T22:11:28.983Z,13.27
2023-05-14T22:13:56.973Z,13.26
2023-05-14T22:16:26.878Z,13.25
2023-05-14T22:18:55.096Z,13.24
2023-05-14T22:21:23.321Z,13.24
2023-05-14T22:23:54.383Z,13.24
2023-05-14T22:26:22.432Z,13.23
2023-05-14T22:28:50.555Z,13.23
2023-05-14T22:31:18.466Z,13.24
2023-05-14T22:33:46.549Z,13.24
2023-05-14T22:36:14.530Z,13.23
2023-05-14T22:38:44.040Z,13.23
2023-05-14T22:41:12.907Z,13.23
2023-05-14T22:43:40.942Z,13.22
2023-05-14T22:46:08.958Z,13.22
2023-05-14T22:48:37.030Z,13.23
2023-05-14T22:51:05.304Z,13.22
2023-05-14T22:53:33.258Z,13.22
2023-05-14T22:56:01.242Z,13.22
2023-05-14T22:58:29.213Z,13.21
2023-05-14T23:00:57.557Z,13.20
2023-05-14T23:03:25.786Z,13.19
2023-05-14T23:05:56.922Z,13.18
2023-05-14T23:08:24.880Z,13.15
2023-05-14T23:10:52.901Z,13.14
2023-05-14T23:13:21.228Z,13.13
2023-05-14T23:15:49.292Z,13.12
2023-05-14T23:18:17.536Z,13.10
2023-05-14T23:20:45.750Z,13.08
2023-05-14T23:23:14.035Z,13.06
2023-05-14T23:25:42.196Z,13.03
2023-05-14T23:28:10.430Z,13.02
2023-05-14T23:30:38.404Z,13.00
2023-05-14T23:33:07.080Z,12.97
2023-05-14T23:35:37.858Z,12.95
2023-05-14T23:38:06.658Z,12.92
2023-05-14T23:40:34.832Z,12.91
2023-05-14T23:43:02.773Z,12.91
2023-05-14T23:45:31.241Z,12.90
2023-05-14T23:48:01.133Z,12.89
2023-05-14T23:50:29.316Z,12.89
2023-05-14T23:52:57.359Z,12.88
2023-05-14T23:55:26.138Z,12.87
2023-05-14T23:57:54.506Z,12.86
